This is the latest recevied weather packets stored in our database for station/object WB3EGK. If no packets are shown the sender has not sent any weather packets the latest 10 day(s).
| Time | Temp. | Humidity | Pressure | Rain* | Wind** | Luminosity | Snow |
|---|---|---|---|---|---|---|---|
| 1778002596 | 19.44° C | 1% | 1004.9 hPa | 0 mm | - | 289 W/m² | - |
| 1778002292 | 18.89° C | 1% | 1004.9 hPa | 0 mm | - | 224 W/m² | - |
| 1778001990 | 19.44° C | 1% | 1005 hPa | 0 mm | - | 65 W/m² | - |
| 1778001687 | 19.44° C | 1% | 1005.2 hPa | 0 mm | - | 128 W/m² | - |
| 1778001381 | 20.56° C | 1% | 1004.9 hPa | 0 mm | - | 235 W/m² | - |
| 1778001079 | 20° C | 1% | 1004.9 hPa | 0 mm | - | 708 W/m² | - |
| 1778000776 | 19.44° C | 1% | 1004.7 hPa | 0 mm | - | 724 W/m² | - |
| 1778000472 | 19.44° C | 1% | 1005.1 hPa | 0 mm | - | 324 W/m² | - |
| 1778000167 | 19.44° C | 1% | 1005.2 hPa | 0 mm | - | 341 W/m² | - |
| 1777999863 | 19.44° C | 1% | 1005.1 hPa | 0 mm | - | 348 W/m² | - |
| 1777999559 | 18.89° C | 1% | 1005.2 hPa | 0 mm | - | 346 W/m² | - |
| 1777999257 | 18.89° C | 1% | 1004.9 hPa | 0 mm | - | 477 W/m² | - |
| 1777998955 | 18.89° C | 1% | 1004.9 hPa | 0 mm | - | 219 W/m² | - |
| 1777998652 | 20° C | 1% | 1004.8 hPa | 0 mm | - | 309 W/m² | - |
| 1777998350 | 20° C | 1% | 1004.6 hPa | 0 mm | - | 684 W/m² | - |
| 1777998047 | 18.89° C | 1% | 1004.2 hPa | 0 mm | - | 724 W/m² | - |
| 1777997744 | 18.89° C | 1% | 1004.5 hPa | 0 mm | - | 805 W/m² | - |
| 1777997441 | 18.89° C | 1% | 1004.4 hPa | 0 mm | - | 778 W/m² | - |
| 1777997139 | 18.33° C | 1% | 1004.9 hPa | 0 mm | - | 337 W/m² | - |
| 1777996836 | 18.33° C | 1% | 1004.9 hPa | 0 mm | - | 229 W/m² | - |
| 1777996532 | 18.33° C | 1% | 1005.2 hPa | 0 mm | - | 181 W/m² | - |
| 1777996229 | 18.33° C | 1% | 1005.2 hPa | 0 mm | - | 167 W/m² | - |
| 1777995925 | 18.33° C | 1% | 1005.2 hPa | 0 mm | - | 163 W/m² | - |
| 1777995621 | 18.33° C | 1% | 1005.2 hPa | 0 mm | - | 196 W/m² | - |
| 1777995319 | 18.33° C | 1% | 1005.1 hPa | 0 mm | - | 191 W/m² | - |
* Rain latest hour (hover to see other rain measurements)
** Current wind speed in m/s (hover to see current wind gust speed)